createdAt,value
2023-03-28T01:26:55.945Z,53.23
2023-03-28T01:28:28.076Z,53.34
2023-03-28T07:01:21.343Z,44.98
2023-03-28T07:02:53.739Z,45.69
2023-03-28T07:04:26.121Z,45.57
2023-03-28T07:05:58.683Z,45.93
2023-03-28T07:07:30.859Z,46.06
2023-03-28T07:09:06.019Z,45.94
2023-03-28T07:10:39.871Z,45.90
2023-03-28T07:12:12.049Z,45.76
2023-03-28T07:13:44.233Z,46.47
2023-03-28T07:15:17.810Z,45.83
2023-03-28T07:16:51.614Z,45.82
2023-03-28T07:18:24.105Z,46.11
2023-03-28T07:19:57.769Z,46.28
2023-03-28T07:21:30.048Z,46.64
2023-03-28T07:23:02.167Z,46.83
2023-03-28T07:24:34.327Z,46.97
2023-03-28T07:26:08.272Z,46.43
2023-03-28T07:27:40.440Z,45.61
2023-03-28T08:28:46.610Z,41.45
2023-03-28T08:30:19.050Z,41.32
2023-03-28T08:31:51.398Z,41.29
2023-03-28T08:33:23.670Z,41.12
2023-03-28T08:34:58.188Z,41.32
2023-03-28T08:36:30.543Z,40.92
2023-03-28T08:38:02.801Z,41.85
2023-03-28T08:39:35.215Z,41.43
2023-03-28T08:41:19.529Z,41.39
2023-03-28T09:22:56.653Z,37.94
2023-03-28T09:24:31.945Z,37.62
2023-03-28T09:26:09.487Z,37.20
2023-03-28T09:27:50.916Z,37.72
2023-03-28T09:29:25.638Z,38.38
2023-03-28T09:30:59.601Z,38.59
2023-03-28T09:32:37.147Z,38.25
2023-03-28T09:34:23.447Z,38.36
2023-03-28T09:35:58.103Z,38.16
2023-03-28T09:37:36.476Z,37.79
2023-03-28T09:39:33.819Z,37.62
2023-03-28T09:41:12.032Z,38.04
2023-03-28T09:43:08.487Z,37.40
2023-03-28T09:44:53.971Z,36.71
2023-03-28T09:46:47.401Z,37.10
2023-03-28T09:48:30.805Z,36.82
2023-03-28T09:50:12.417Z,36.50
2023-03-28T09:53:33.025Z,36.45
2023-03-28T09:55:06.130Z,36.32
2023-03-28T09:56:40.822Z,35.67
2023-03-28T09:58:15.323Z,36.06
2023-03-28T09:59:47.752Z,36.87
2023-03-28T10:01:46.435Z,36.29
2023-03-28T10:03:23.664Z,36.35
2023-03-28T10:04:56.311Z,37.09
2023-03-28T11:09:07.249Z,34.45
2023-03-28T11:10:59.784Z,35.26
2023-03-28T11:12:57.294Z,33.73
2023-03-28T11:15:00.505Z,33.04
2023-03-28T11:16:59.717Z,33.20
2023-03-28T11:18:50.472Z,34.03
2023-03-28T11:20:28.803Z,34.41
2023-03-28T11:22:04.644Z,34.28
2023-03-28T11:23:57.030Z,34.15
2023-03-28T11:47:40.281Z,32.85
2023-03-28T11:49:38.531Z,32.47
2023-03-28T11:51:14.979Z,32.55
2023-03-28T11:52:54.095Z,33.50
2023-03-28T11:54:40.384Z,32.06
2023-03-28T11:56:33.815Z,32.17
2023-03-28T11:58:12.795Z,31.34
2023-03-28T11:59:51.130Z,32.63
2023-03-28T12:01:26.074Z,32.49
2023-03-28T12:03:09.738Z,32.60
2023-03-28T12:04:50.648Z,32.70
2023-03-28T12:06:36.196Z,33.05
2023-03-28T12:08:53.957Z,33.44
2023-03-28T12:10:29.442Z,33.19
2023-03-28T12:12:14.597Z,33.85
2023-03-28T12:14:01.417Z,33.73
2023-03-28T12:15:48.314Z,33.79
2023-03-28T12:17:35.359Z,33.89
2023-03-28T12:19:11.100Z,33.66
2023-03-28T12:21:00.973Z,32.96
2023-03-28T12:22:50.857Z,32.60
2023-03-28T12:24:30.280Z,32.92
2023-03-28T12:26:18.623Z,33.97
2023-03-28T12:27:58.188Z,34.32
2023-03-28T12:29:39.826Z,33.71
2023-03-28T12:31:29.246Z,34.16
2023-03-28T12:33:23.335Z,34.12
2023-03-28T12:35:34.530Z,33.62
2023-03-28T12:37:12.982Z,32.85
2023-03-28T12:39:05.396Z,32.61
2023-03-28T12:41:01.327Z,32.81
2023-03-28T12:42:33.741Z,33.83
2023-03-28T12:44:27.610Z,33.76
2023-03-28T12:46:04.009Z,32.46
2023-03-28T12:47:42.434Z,31.88
2023-03-28T12:49:35.450Z,32.46
2023-03-28T12:51:21.742Z,32.69
2023-03-28T12:52:54.345Z,32.17
2023-03-28T12:54:29.152Z,32.67
2023-03-28T12:56:03.063Z,32.47
2023-03-28T12:57:41.387Z,32.78
2023-03-28T12:59:41.768Z,32.76
2023-03-28T13:01:42.244Z,33.34
2023-03-28T13:03:23.621Z,33.93
2023-03-28T13:04:57.843Z,33.93
2023-03-28T13:06:48.556Z,33.39
2023-03-28T13:08:27.720Z,33.10
2023-03-28T13:10:06.948Z,33.82
2023-03-28T13:12:08.688Z,33.40
2023-03-28T13:13:59.156Z,33.61
2023-03-28T13:16:07.373Z,33.42
2023-03-28T13:17:43.042Z,33.67
2023-03-28T13:19:18.423Z,33.78
2023-03-28T13:20:52.710Z,33.22
2023-03-28T13:22:27.590Z,32.96
2023-03-28T13:23:59.776Z,33.06
2023-03-28T13:25:41.155Z,33.16
2023-03-28T13:27:15.161Z,33.28
2023-03-28T13:28:49.266Z,33.33
2023-03-28T14:54:17.260Z,35.55
2023-03-28T14:55:50.535Z,35.68
2023-03-28T14:57:23.049Z,35.80
2023-03-28T14:59:02.586Z,35.45
2023-03-28T15:00:46.963Z,34.87
2023-03-28T15:02:29.542Z,35.33
2023-03-28T15:04:07.070Z,34.95
2023-03-28T15:05:39.661Z,35.35
2023-03-28T15:07:21.352Z,35.47
2023-03-28T15:08:56.381Z,35.02
2023-03-28T15:10:29.123Z,33.52
2023-03-28T15:12:05.359Z,33.72
2023-03-28T15:13:41.180Z,33.48
2023-03-28T15:15:20.093Z,33.37
2023-03-28T15:16:52.389Z,32.33
2023-03-28T15:18:30.910Z,32.53
2023-03-28T15:20:06.126Z,32.84
2023-03-28T15:21:40.190Z,33.25
2023-03-28T15:23:17.714Z,32.89
2023-03-28T15:24:50.197Z,32.32
2023-03-28T15:26:28.245Z,31.77
2023-03-28T15:28:02.959Z,32.05
2023-03-28T15:29:37.412Z,31.67
2023-03-28T15:31:10.492Z,31.82
2023-03-28T15:32:42.868Z,31.42
2023-03-28T15:34:27.810Z,31.67
2023-03-28T15:36:08.462Z,30.92
2023-03-28T15:37:43.100Z,31.46
2023-03-28T15:39:25.015Z,30.78
2023-03-28T15:41:39.383Z,30.65
2023-03-28T15:43:39.319Z,30.88
2023-03-28T15:45:21.762Z,30.38
2023-03-28T15:47:21.365Z,30.74
2023-03-28T15:48:58.188Z,31.00
2023-03-28T15:50:36.775Z,31.00
2023-03-28T15:52:18.582Z,31.32
2023-03-28T15:53:52.084Z,31.22
2023-03-28T15:55:24.202Z,31.01
2023-03-28T15:56:57.478Z,30.97
2023-03-28T15:58:29.816Z,30.64
2023-03-28T16:00:02.118Z,30.88
2023-03-28T16:01:34.723Z,31.21
2023-03-28T16:03:20.074Z,31.38
2023-03-28T16:05:15.250Z,30.12
2023-03-28T16:06:47.383Z,30.17
2023-03-28T16:08:33.215Z,30.28
2023-03-28T16:10:05.821Z,31.03
2023-03-28T16:11:42.011Z,30.51
2023-03-28T16:13:15.330Z,30.37
2023-03-28T16:14:49.846Z,30.70
2023-03-28T16:16:27.259Z,30.30
2023-03-28T16:17:59.528Z,30.33
2023-03-28T16:19:35.850Z,30.50
2023-03-28T16:21:20.927Z,30.82
2023-03-28T16:22:53.247Z,30.89
2023-03-28T16:24:26.008Z,30.83
2023-03-28T16:25:58.286Z,30.65
2023-03-28T16:27:31.273Z,30.70
2023-03-28T16:29:04.363Z,30.70
2023-03-28T16:30:40.887Z,31.12
2023-03-28T16:32:15.293Z,31.33
2023-03-28T16:33:47.475Z,31.28
2023-03-28T16:35:19.781Z,31.42
2023-03-28T16:36:52.199Z,32.08
2023-03-28T16:38:24.870Z,32.00
2023-03-28T16:39:57.388Z,32.57
2023-03-28T16:41:29.602Z,33.11
2023-03-28T16:43:02.294Z,33.14
2023-03-28T16:44:34.886Z,33.60
2023-03-28T16:46:09.293Z,33.94
2023-03-28T16:47:42.752Z,35.04
2023-03-28T16:49:14.938Z,35.80
2023-03-28T16:51:05.731Z,36.94
2023-03-28T16:52:39.386Z,37.38
2023-03-28T16:54:12.128Z,37.97
2023-03-28T16:55:44.425Z,38.13
2023-03-28T16:57:16.972Z,38.66
2023-03-28T16:58:49.231Z,38.83
2023-03-28T17:00:23.350Z,39.24
2023-03-28T17:01:56.098Z,39.50
2023-03-28T17:03:28.470Z,39.72
2023-03-28T17:05:00.875Z,39.76
2023-03-28T17:06:33.255Z,39.87
2023-03-28T17:08:05.800Z,40.05
2023-03-28T17:09:37.960Z,39.95
2023-03-28T17:11:12.931Z,40.23
2023-03-28T17:12:45.123Z,40.71
2023-03-28T17:14:17.264Z,40.94
2023-03-28T17:15:50.803Z,40.79
2023-03-28T17:17:24.344Z,41.37
2023-03-28T17:18:56.647Z,41.63
2023-03-28T17:22:05.511Z,42.32
2023-03-28T17:23:38.925Z,42.60
2023-03-28T17:25:11.509Z,43.04
2023-03-28T17:26:43.677Z,43.37
2023-03-28T17:28:15.909Z,43.70
2023-03-28T17:29:48.062Z,43.62
2023-03-28T17:31:21.540Z,44.04
2023-03-28T17:32:54.091Z,44.54
2023-03-28T17:34:26.528Z,44.68
2023-03-28T17:35:58.962Z,44.88
2023-03-28T17:37:31.629Z,45.19
2023-03-28T17:39:04.473Z,45.50
2023-03-28T17:40:37.730Z,45.60
2023-03-28T17:42:10.129Z,45.97
2023-03-28T17:43:42.816Z,46.28
2023-03-28T17:45:15.060Z,46.41
2023-03-28T17:46:47.724Z,47.11
2023-03-28T17:48:19.925Z,47.16
2023-03-28T17:49:52.066Z,47.03
2023-03-28T17:51:24.386Z,47.16
2023-03-28T17:52:56.584Z,47.47
2023-03-28T17:54:28.843Z,47.90
2023-03-28T17:56:01.791Z,47.80
2023-03-28T17:57:34.289Z,48.01
2023-03-28T17:59:06.903Z,48.10
2023-03-28T18:00:39.481Z,48.51
2023-03-28T18:02:11.711Z,47.75
2023-03-28T18:03:46.212Z,48.25
2023-03-28T18:05:18.588Z,48.38
2023-03-28T18:06:50.789Z,48.48
2023-03-28T18:08:23.323Z,48.66
2023-03-28T18:09:56.118Z,48.38
2023-03-28T18:11:28.774Z,48.52
2023-03-28T18:13:01.134Z,48.42
2023-03-28T18:14:33.304Z,48.30
2023-03-28T18:16:11.073Z,48.40
2023-03-28T18:17:45.031Z,48.54
2023-03-28T18:19:19.043Z,48.53
2023-03-28T18:20:51.938Z,48.91
2023-03-28T18:22:24.292Z,49.01
2023-03-28T18:23:57.225Z,48.74
2023-03-28T18:25:32.374Z,48.94
2023-03-28T18:27:05.067Z,48.79
2023-03-28T18:28:37.319Z,49.03
2023-03-28T18:30:09.977Z,48.95
2023-03-28T18:31:42.973Z,48.49
2023-03-28T18:33:15.136Z,48.83
2023-03-28T18:34:47.346Z,49.06
2023-03-28T18:36:19.539Z,48.78
2023-03-28T18:37:52.343Z,48.51
2023-03-28T18:39:24.570Z,48.45
2023-03-28T18:40:56.888Z,48.65
2023-03-28T18:42:30.441Z,48.62
2023-03-28T18:44:02.476Z,48.66
2023-03-28T18:45:37.667Z,48.44
2023-03-28T18:47:11.135Z,48.33
2023-03-28T18:48:44.119Z,48.39
2023-03-28T18:50:16.362Z,48.38
2023-03-28T18:51:48.786Z,48.09
2023-03-28T18:53:21.502Z,48.30
2023-03-28T18:54:53.759Z,48.46
2023-03-28T18:56:25.987Z,48.29
2023-03-28T18:57:58.656Z,48.19
2023-03-28T18:59:31.465Z,48.30
2023-03-28T19:01:04.003Z,48.27
2023-03-28T19:02:36.624Z,48.13
2023-03-28T19:04:08.972Z,48.30
2023-03-28T19:05:41.537Z,47.99
2023-03-28T19:07:17.318Z,48.42
2023-03-28T19:08:50.587Z,48.68
2023-03-28T19:10:22.919Z,48.62
2023-03-28T19:11:55.532Z,48.59
2023-03-28T19:13:29.444Z,48.70
2023-03-28T19:15:01.584Z,48.57
2023-03-28T19:16:33.882Z,48.50
2023-03-28T19:18:07.270Z,48.57
2023-03-28T19:19:39.580Z,48.42
2023-03-28T19:21:12.436Z,48.95
2023-03-28T19:22:44.670Z,48.57
2023-03-28T19:24:17.103Z,48.75
2023-03-28T19:25:49.250Z,48.87
2023-03-28T19:27:21.602Z,48.77
2023-03-28T19:28:56.914Z,49.10
2023-03-28T19:30:30.872Z,48.95
2023-03-28T19:32:03.028Z,49.21
2023-03-28T19:33:37.219Z,49.47
2023-03-28T19:35:09.779Z,49.51
2023-03-28T19:36:42.221Z,49.67
2023-03-28T19:38:14.426Z,49.73
2023-03-28T19:39:46.495Z,50.13
2023-03-28T19:41:20.951Z,50.10
2023-03-28T19:42:53.026Z,50.27
2023-03-28T19:44:25.184Z,50.45
2023-03-28T19:46:08.561Z,50.61
2023-03-28T19:47:41.087Z,51.13
2023-03-28T19:49:13.700Z,51.29
2023-03-28T19:50:46.326Z,51.23
2023-03-28T19:52:18.601Z,51.26
2023-03-28T19:53:50.737Z,51.79
2023-03-28T19:55:23.159Z,51.72
2023-03-28T19:56:55.449Z,51.98
2023-03-28T19:58:28.721Z,52.09
2023-03-28T20:00:00.844Z,52.01
2023-03-28T20:01:33.023Z,51.80
2023-03-28T20:03:05.301Z,52.03
2023-03-28T20:04:37.660Z,51.93
2023-03-28T20:06:12.633Z,52.14
2023-03-28T20:07:44.810Z,52.32
2023-03-28T20:09:17.387Z,51.86
2023-03-28T20:10:51.709Z,52.29
2023-03-28T20:12:23.924Z,52.33
2023-03-28T20:13:56.271Z,52.38
2023-03-28T20:15:28.495Z,52.41
2023-03-28T20:17:00.681Z,52.21
2023-03-28T20:18:33.039Z,52.16
2023-03-28T20:20:05.843Z,51.91
2023-03-28T20:21:38.148Z,52.07
2023-03-28T20:23:12.207Z,51.77
2023-03-28T20:24:45.444Z,51.56
2023-03-28T20:26:19.894Z,51.68
2023-03-28T20:29:27.706Z,51.62
2023-03-28T20:31:00.311Z,51.24
2023-03-28T20:32:32.668Z,51.61
2023-03-28T20:34:04.895Z,51.38
2023-03-28T20:35:37.713Z,51.31
2023-03-28T20:37:09.945Z,51.31
2023-03-28T20:38:42.205Z,51.19
2023-03-28T20:40:14.485Z,50.87
2023-03-28T20:41:47.179Z,50.86
2023-03-28T20:43:24.597Z,50.87
2023-03-28T20:44:56.860Z,51.18
2023-03-28T20:46:32.494Z,51.21
2023-03-28T20:48:07.579Z,51.45
2023-03-28T20:49:46.695Z,52.08
2023-03-28T20:51:19.476Z,52.01
2023-03-28T20:52:52.187Z,52.57
2023-03-28T20:54:24.827Z,52.77
2023-03-28T20:56:04.554Z,52.93
2023-03-28T20:57:41.067Z,53.66
2023-03-28T20:59:13.427Z,53.80
2023-03-28T21:00:48.028Z,54.07
2023-03-28T21:04:09.108Z,54.53
2023-03-28T21:05:44.076Z,54.64
2023-03-28T21:07:18.601Z,54.75
2023-03-28T21:08:52.897Z,54.93
2023-03-28T21:10:25.077Z,54.88
2023-03-28T21:11:57.280Z,55.02
2023-03-28T21:13:29.525Z,55.18
2023-03-28T21:15:01.643Z,55.58
2023-03-28T21:16:38.009Z,55.47
2023-03-28T21:18:11.327Z,55.57
2023-03-28T21:19:43.499Z,55.09
2023-03-28T21:21:17.368Z,55.45
2023-03-28T21:22:49.639Z,55.81
2023-03-28T21:24:21.957Z,55.67
2023-03-28T21:25:54.197Z,55.88
2023-03-28T21:27:26.613Z,55.88
2023-03-28T21:28:59.180Z,55.75
2023-03-28T21:30:31.465Z,55.73
2023-03-28T21:32:03.966Z,55.80
2023-03-28T21:33:39.635Z,55.96
2023-03-28T21:35:11.916Z,56.26
2023-03-28T21:36:45.068Z,56.07
2023-03-28T21:38:17.396Z,56.38
2023-03-28T21:39:49.730Z,56.56
2023-03-28T21:41:23.026Z,56.64
2023-03-28T21:42:55.114Z,56.86
2023-03-28T21:44:27.221Z,56.77
2023-03-28T21:45:59.488Z,56.47
2023-03-28T21:47:31.949Z,56.32
2023-03-28T21:49:04.049Z,56.19
2023-03-28T21:50:39.390Z,56.27
2023-03-28T21:52:11.610Z,56.12
2023-03-28T21:53:43.854Z,56.87
2023-03-28T21:55:16.191Z,56.66
2023-03-28T21:56:48.472Z,56.66
2023-03-28T21:58:21.301Z,56.53
2023-03-28T21:59:53.567Z,56.50
2023-03-28T22:01:25.880Z,56.66
2023-03-28T22:02:58.114Z,56.28
2023-03-28T22:04:30.419Z,56.42
2023-03-28T22:06:05.450Z,56.28
2023-03-28T22:07:37.560Z,56.32
2023-03-28T22:09:09.911Z,56.14
2023-03-28T22:10:47.774Z,56.32
2023-03-28T22:12:23.114Z,56.51
2023-03-28T22:14:01.714Z,56.59
2023-03-28T22:15:33.874Z,56.13
2023-03-28T22:17:06.087Z,56.24
2023-03-28T22:18:38.255Z,55.92
2023-03-28T22:20:12.270Z,56.01
2023-03-28T22:21:44.952Z,55.93
2023-03-28T22:23:16.987Z,55.38
2023-03-28T22:24:49.262Z,55.20
2023-03-28T22:26:21.526Z,55.38
2023-03-28T22:27:53.960Z,55.02
2023-03-28T22:29:27.186Z,55.15
2023-03-28T22:30:59.575Z,54.78
2023-03-28T22:32:32.458Z,54.69
2023-03-28T22:34:04.577Z,54.66
2023-03-28T22:35:37.171Z,54.29
2023-03-28T22:37:09.588Z,54.39
2023-03-28T22:38:41.783Z,54.82
2023-03-28T22:40:14.305Z,54.04
2023-03-28T22:43:19.481Z,54.03
2023-03-28T22:44:51.720Z,54.01
2023-03-28T22:46:23.814Z,53.79
2023-03-28T22:48:00.625Z,53.68
2023-03-28T22:49:34.440Z,53.75
2023-03-28T22:51:12.116Z,53.66
2023-03-28T22:52:50.460Z,53.88
2023-03-28T22:54:25.840Z,53.79
2023-03-28T22:55:58.143Z,53.56
2023-03-28T22:57:30.638Z,53.87
2023-03-28T22:59:02.879Z,53.62
2023-03-28T23:00:35.474Z,53.42
2023-03-28T23:02:07.936Z,53.41
2023-03-28T23:03:40.212Z,53.44
2023-03-28T23:05:13.032Z,53.38
2023-03-28T23:06:50.656Z,53.18
2023-03-28T23:08:22.853Z,53.32
2023-03-28T23:09:55.305Z,53.24
2023-03-28T23:11:27.378Z,53.32
2023-03-28T23:13:02.945Z,53.21
2023-03-28T23:14:36.033Z,53.18
2023-03-28T23:16:08.231Z,53.00
2023-03-28T23:17:40.828Z,53.00
2023-03-28T23:19:13.046Z,52.87
2023-03-28T23:20:50.054Z,52.84
2023-03-28T23:22:22.837Z,52.75
2023-03-28T23:23:55.052Z,52.83
2023-03-28T23:25:28.923Z,52.77
2023-03-28T23:27:01.145Z,52.93
2023-03-28T23:28:33.218Z,52.70
2023-03-28T23:30:10.567Z,52.93
2023-03-28T23:31:42.755Z,52.73
2023-03-28T23:33:14.935Z,52.81
2023-03-28T23:34:47.052Z,53.05
2023-03-28T23:36:21.344Z,52.87
2023-03-28T23:37:53.555Z,52.77
2023-03-28T23:39:25.728Z,52.80
2023-03-28T23:40:57.830Z,52.64
2023-03-28T23:42:29.930Z,52.58
2023-03-28T23:44:02.246Z,52.73
2023-03-28T23:45:34.593Z,52.58
2023-03-28T23:47:06.717Z,52.37
2023-03-28T23:48:38.862Z,52.47
2023-03-28T23:50:11.409Z,52.50
2023-03-28T23:51:43.762Z,52.26
2023-03-28T23:53:16.400Z,52.44
2023-03-28T23:54:48.615Z,52.23
2023-03-28T23:56:20.681Z,52.00
2023-03-28T23:57:54.726Z,51.97
2023-03-28T23:59:26.850Z,51.70
